Time;durP1;ratioP1;P1;durP2;ratioP2;P2;SDS_P1;SDS_P2;PMS_P1;PMS_P2;Temp;Humidity;BMP_temperature;BMP_pressure;BME280_temperature;BME280_humidity;BME280_pressure;Samples;Min_cycle;Max_cycle;Signal;HPM_P1;HPM_P2
2021/09/03 00:01:04;;;;;;;1.77;1.33;;;11.50;93.90;;;;;;6196259;23;20008;-95
2021/09/03 00:03:31;;;;;;;2.38;1.35;;;11.40;94.00;;;;;;6200803;23;20462;-95
2021/09/03 00:06:00;;;;;;;1.33;1.23;;;11.30;94.20;;;;;;6200854;23;19997;-95
2021/09/03 00:08:28;;;;;;;1.27;1.17;;;11.20;94.30;;;;;;6196814;23;20036;-95
2021/09/03 00:11:01;;;;;;;1.35;1.25;;;11.00;94.70;;;;;;6198794;23;20001;-96
2021/09/03 00:13:27;;;;;;;2.08;1.30;;;10.90;94.70;;;;;;6200963;23;20000;-96
2021/09/03 00:15:53;;;;;;;1.02;1.00;;;10.80;94.90;;;;;;6205373;23;19997;-95
2021/09/03 00:18:19;;;;;;;0.85;0.85;;;10.70;95.00;;;;;;6202738;23;20015;-95
2021/09/03 00:20:45;;;;;;;2.10;1.42;;;10.60;95.40;;;;;;6203587;23;20083;-95
2021/09/03 00:23:10;;;;;;;3.50;1.20;;;10.50;95.60;;;;;;6203933;23;20008;-95
2021/09/03 00:25:36;;;;;;;2.60;1.52;;;10.40;95.70;;;;;;6188239;23;20023;-95
2021/09/03 00:28:05;;;;;;;1.58;1.48;;;10.40;96.10;;;;;;6169306;23;20001;-95
2021/09/03 00:30:31;;;;;;;2.05;1.10;;;10.30;96.10;;;;;;6171723;23;20005;-95
2021/09/03 00:32:57;;;;;;;3.50;1.27;;;10.30;96.10;;;;;;6175183;23;20051;-95
2021/09/03 00:35:23;;;;;;;1.23;1.13;;;10.20;96.60;;;;;;6171882;23;20009;-95
2021/09/03 00:37:49;;;;;;;0.90;0.90;;;10.10;96.40;;;;;;6170312;23;20005;-95
2021/09/03 00:40:18;;;;;;;0.80;0.80;;;10.10;96.80;;;;;;6171142;23;20001;-95
2021/09/03 00:42:43;;;;;;;1.58;1.10;;;10.00;96.60;;;;;;6169634;23;20008;-95
2021/09/03 00:45:10;;;;;;;1.63;1.52;;;10.00;96.90;;;;;;6197365;23;19997;-95
2021/09/03 00:47:38;;;;;;;1.15;1.08;;;9.90;97.00;;;;;;6172381;23;20008;-95
2021/09/03 00:50:06;;;;;;;1.52;1.23;;;9.90;97.00;;;;;;6173993;23;20017;-94
2021/09/03 00:52:32;;;;;;;2.03;1.60;;;9.80;96.90;;;;;;6172794;23;20001;-95
2021/09/03 00:54:58;;;;;;;1.10;0.88;;;9.70;97.10;;;;;;6172357;23;19997;-96
2021/09/03 00:57:27;;;;;;;1.95;1.00;;;9.70;97.10;;;;;;6174014;23;20001;-95
2021/09/03 00:59:55;;;;;;;1.02;1.02;;;9.60;97.40;;;;;;6168378;23;20093;-95
2021/09/03 01:02:22;;;;;;;1.00;0.90;;;9.60;97.40;;;;;;6173734;23;20055;-95
2021/09/03 01:04:48;;;;;;;1.02;0.98;;;9.60;97.40;;;;;;6172453;23;20009;-95
2021/09/03 01:07:15;;;;;;;1.40;1.30;;;9.50;97.40;;;;;;6170847;23;20009;-95
2021/09/03 01:09:41;;;;;;;1.15;1.05;;;9.50;97.80;;;;;;6171237;23;20091;-95
2021/09/03 01:12:07;;;;;;;2.22;1.35;;;9.50;97.60;;;;;;6172667;23;20008;-95
2021/09/03 01:14:33;;;;;;;1.73;1.08;;;9.40;98.00;;;;;;6177160;23;20012;-95
2021/09/03 01:19:42;;;;;;;1.35;1.25;;;9.40;98.10;;;;;;6239566;23;20024;-92
2021/09/03 01:22:08;;;;;;;1.70;1.23;;;9.40;98.00;;;;;;6209515;23;19997;-92
2021/09/03 01:24:34;;;;;;;1.92;1.45;;;9.40;98.10;;;;;;6204754;23;20008;-93
2021/09/03 01:27:00;;;;;;;1.15;1.10;;;9.30;98.40;;;;;;6206550;23;20024;-93
2021/09/03 01:29:26;;;;;;;2.22;1.40;;;9.30;98.30;;;;;;6205466;23;20301;-93
2021/09/03 01:31:52;;;;;;;1.42;1.30;;;9.30;98.30;;;;;;6205326;23;20035;-94
2021/09/03 01:34:18;;;;;;;0.95;0.93;;;9.30;98.50;;;;;;6202624;23;19997;-94
2021/09/03 01:36:43;;;;;;;1.77;1.20;;;9.30;98.30;;;;;;6201545;23;20000;-93
2021/09/03 01:39:09;;;;;;;1.77;1.20;;;9.30;98.50;;;;;;6199733;23;20020;-94
2021/09/03 01:41:35;;;;;;;1.60;0.95;;;9.30;98.30;;;;;;6220392;23;20001;-93
2021/09/03 01:44:01;;;;;;;1.48;1.23;;;9.30;98.40;;;;;;6227285;23;20027;-94
2021/09/03 01:46:27;;;;;;;1.27;1.20;;;9.20;98.30;;;;;;6225728;23;20008;-93
2021/09/03 01:48:53;;;;;;;1.40;1.10;;;9.20;98.80;;;;;;6224009;23;20075;-94
2021/09/03 01:51:18;;;;;;;2.13;1.63;;;9.10;98.80;;;;;;6225071;23;20091;-93
2021/09/03 01:53:44;;;;;;;1.15;1.05;;;9.10;98.90;;;;;;6223816;23;20332;-94
2021/09/03 01:56:10;;;;;;;2.38;1.42;;;9.00;99.00;;;;;;6225465;23;20084;-93
2021/09/03 01:58:36;;;;;;;1.60;1.40;;;9.00;99.10;;;;;;6201342;23;20056;-93
2021/09/03 02:01:02;;;;;;;2.13;1.83;;;8.90;99.10;;;;;;6225434;23;20000;-93
2021/09/03 02:03:28;;;;;;;1.90;1.65;;;8.90;99.30;;;;;;6230348;23;20008;-93
2021/09/03 02:05:56;;;;;;;1.35;1.25;;;8.80;99.10;;;;;;6224597;23;20084;-94
2021/09/03 02:08:22;;;;;;;1.38;1.27;;;8.80;99.60;;;;;;6199944;23;20008;-93
2021/09/03 02:10:47;;;;;;;1.77;1.65;;;8.70;99.50;;;;;;6199233;23;20001;-94
2021/09/03 02:13:13;;;;;;;2.03;1.10;;;8.70;99.50;;;;;;6228270;23;19997;-93
2021/09/03 02:15:42;;;;;;;2.85;1.15;;;8.70;99.60;;;;;;6225679;23;20000;-93
2021/09/03 02:18:08;;;;;;;1.20;1.10;;;8.70;99.70;;;;;;6225039;23;20518;-94
2021/09/03 02:20:34;;;;;;;2.53;1.52;;;8.60;99.70;;;;;;6229088;23;20022;-95
2021/09/03 02:23:00;;;;;;;3.92;1.75;;;8.60;99.80;;;;;;6228469;23;19997;-95
2021/09/03 02:25:26;;;;;;;2.92;1.38;;;8.60;99.90;;;;;;6226495;23;20001;-96
2021/09/03 02:27:51;;;;;;;3.50;1.55;;;8.60;99.90;;;;;;6225488;23;20104;-95
2021/09/03 02:30:17;;;;;;;1.30;1.20;;;8.50;99.90;;;;;;6228434;23;20008;-96
2021/09/03 02:32:43;;;;;;;2.42;1.65;;;8.60;99.90;;;;;;6225680;23;19996;-95
2021/09/03 02:35:09;;;;;;;2.05;1.55;;;8.60;99.90;;;;;;6226839;23;20001;-95
2021/09/03 02:37:38;;;;;;;1.73;1.45;;;8.60;99.90;;;;;;6225746;23;20068;-95
2021/09/03 02:40:04;;;;;;;2.00;1.80;;;8.50;99.90;;;;;;6223580;23;20000;-95
2021/09/03 02:42:30;;;;;;;1.45;1.35;;;8.60;99.90;;;;;;6221468;23;20001;-95
2021/09/03 02:44:56;;;;;;;1.90;1.70;;;8.60;99.90;;;;;;6196516;23;20004;-96
2021/09/03 02:47:24;;;;;;;2.83;1.80;;;8.60;99.90;;;;;;6222749;23;20424;-96
2021/09/03 02:49:53;;;;;;;7.38;2.10;;;8.60;99.90;;;;;;6221570;23;20439;-95
2021/09/03 02:52:19;;;;;;;3.85;1.85;;;8.60;99.90;;;;;;6220526;23;20030;-96
2021/09/03 02:54:47;;;;;;;2.40;1.48;;;8.60;99.90;;;;;;6222298;23;20091;-95
2021/09/03 02:57:15;;;;;;;2.72;1.80;;;8.60;99.90;;;;;;6198602;23;20008;-95
2021/09/03 02:59:41;;;;;;;3.03;1.58;;;8.60;99.90;;;;;;6221030;23;20435;-95
2021/09/03 03:02:07;;;;;;;1.63;1.38;;;8.50;99.90;;;;;;6224362;23;19997;-95
2021/09/03 03:04:33;;;;;;;1.67;1.58;;;8.50;99.90;;;;;;6199195;23;19997;-95
2021/09/03 03:06:58;;;;;;;3.72;1.85;;;8.50;99.90;;;;;;6224081;23;20400;-96
2021/09/03 03:09:24;;;;;;;2.65;1.90;;;8.50;99.90;;;;;;6219518;23;20091;-95
2021/09/03 03:11:50;;;;;;;2.00;1.55;;;8.50;99.90;;;;;;6197322;23;20004;-96
2021/09/03 03:14:26;;;;;;;6.10;1.73;;;8.50;99.90;;;;;;6224341;23;20001;-95
2021/09/03 03:16:56;;;;;;;2.67;1.75;;;8.50;99.90;;;;;;6223367;23;20130;-95
2021/09/03 03:19:23;;;;;;;1.98;1.50;;;8.40;99.90;;;;;;6198184;23;20020;-96
2021/09/03 03:21:49;;;;;;;2.03;1.40;;;8.40;99.90;;;;;;6202560;23;20327;-95
2021/09/03 03:24:15;;;;;;;4.55;2.00;;;8.40;99.90;;;;;;6227940;23;20075;-95
2021/09/03 03:26:41;;;;;;;5.03;1.85;;;8.40;99.90;;;;;;6225507;23;20001;-96
2021/09/03 03:29:06;;;;;;;3.00;1.80;;;8.50;99.90;;;;;;6224862;23;20012;-95
2021/09/03 03:31:32;;;;;;;2.40;1.98;;;8.50;99.90;;;;;;6200662;23;20027;-95
2021/09/03 03:33:59;;;;;;;2.55;1.80;;;8.50;99.90;;;;;;6227263;23;20058;-95
2021/09/03 03:36:28;;;;;;;1.65;1.55;;;8.50;99.90;;;;;;6201368;23;20154;-95
2021/09/03 03:38:55;;;;;;;3.35;1.98;;;8.50;99.90;;;;;;6200453;23;20327;-96
2021/09/03 03:41:20;;;;;;;2.47;1.83;;;8.50;99.90;;;;;;6199966;23;20092;-95
2021/09/03 03:43:46;;;;;;;2.72;1.90;;;8.50;99.90;;;;;;6232550;23;20000;-95
2021/09/03 03:46:12;;;;;;;3.13;1.73;;;8.60;99.90;;;;;;6236619;23;20005;-95
2021/09/03 03:48:38;;;;;;;3.88;2.25;;;8.60;99.90;;;;;;6232630;23;20004;-95
2021/09/03 03:51:04;;;;;;;1.63;1.52;;;8.60;99.90;;;;;;6224421;23;20075;-95
2021/09/03 03:53:30;;;;;;;1.63;1.40;;;8.70;99.90;;;;;;6197809;23;20403;-95
2021/09/03 03:55:56;;;;;;;3.83;1.77;;;8.70;99.90;;;;;;6221388;23;20004;-95
2021/09/03 03:58:22;;;;;;;3.47;1.92;;;8.70;99.90;;;;;;6198946;23;20072;-95
2021/09/03 04:00:48;;;;;;;3.65;1.85;;;8.80;99.90;;;;;;6219806;23;20007;-95
2021/09/03 04:03:14;;;;;;;3.20;1.80;;;8.80;99.90;;;;;;6195583;23;20001;-95
2021/09/03 04:05:39;;;;;;;2.92;1.48;;;8.90;99.90;;;;;;6219939;23;20462;-95
2021/09/03 04:08:05;;;;;;;2.47;1.80;;;8.90;99.90;;;;;;6219932;23;20430;-96
2021/09/03 04:10:32;;;;;;;3.33;1.95;;;9.00;99.90;;;;;;6195915;23;20008;-94
2021/09/03 04:12:57;;;;;;;2.38;1.80;;;9.00;99.90;;;;;;6194325;23;20005;-96
2021/09/03 04:15:23;;;;;;;1.67;1.55;;;9.10;99.90;;;;;;6221260;23;20087;-95
2021/09/03 04:17:49;;;;;;;2.35;2.05;;;9.20;99.90;;;;;;6220673;23;20023;-95
2021/09/03 04:20:15;;;;;;;3.35;2.22;;;9.20;99.90;;;;;;6221083;23;20004;-95
2021/09/03 04:22:41;;;;;;;3.80;1.92;;;9.30;99.90;;;;;;6197452;23;19997;-95
2021/09/03 04:25:10;;;;;;;2.67;1.70;;;9.30;99.90;;;;;;6198267;23;20015;-96
2021/09/03 04:27:39;;;;;;;2.38;1.98;;;9.40;99.90;;;;;;6195460;23;20005;-95
2021/09/03 04:30:13;;;;;;;2.80;1.67;;;9.40;99.90;;;;;;6195841;23;20073;-95
2021/09/03 04:32:43;;;;;;;2.90;2.35;;;9.50;99.90;;;;;;6195529;23;20004;-95
2021/09/03 04:35:10;;;;;;;3.83;2.00;;;9.60;99.80;;;;;;6197614;23;20424;-96
2021/09/03 04:37:46;;;;;;;2.90;1.85;;;9.70;99.70;;;;;;6223349;23;20416;-93
2021/09/03 04:40:13;;;;;;;3.50;2.53;;;9.80;99.50;;;;;;6196066;23;20001;-93
2021/09/03 04:42:39;;;;;;;2.15;1.88;;;9.80;99.30;;;;;;6195655;23;20297;-94
2021/09/03 04:45:07;;;;;;;3.28;2.13;;;9.90;99.30;;;;;;6220045;23;20005;-95
2021/09/03 04:47:33;;;;;;;2.10;1.90;;;10.00;99.10;;;;;;6200803;23;20012;-94
2021/09/03 04:50:07;;;;;;;3.55;1.83;;;10.00;99.00;;;;;;6223597;23;20060;-95
2021/09/03 04:52:33;;;;;;;3.42;2.40;;;10.10;98.70;;;;;;6197642;23;20059;-95
2021/09/03 04:55:02;;;;;;;2.22;1.83;;;10.20;98.60;;;;;;6223545;23;20064;-96
2021/09/03 04:57:33;;;;;;;2.45;1.73;;;10.20;98.50;;;;;;6228685;23;19997;-96
2021/09/03 04:59:58;;;;;;;2.33;1.98;;;10.30;98.40;;;;;;6224830;23;20072;-95
2021/09/03 05:02:24;;;;;;;2.63;2.03;;;10.40;98.30;;;;;;6221641;23;20015;-95
2021/09/03 05:04:52;;;;;;;2.63;1.85;;;10.50;98.10;;;;;;6220867;23;20059;-95
2021/09/03 05:07:18;;;;;;;2.75;1.90;;;10.60;97.90;;;;;;6220936;23;20092;-95
2021/09/03 05:09:46;;;;;;;4.85;2.08;;;10.70;97.60;;;;;;6223584;23;20023;-96
2021/09/03 05:12:14;;;;;;;4.60;1.52;;;10.80;97.40;;;;;;6200851;23;19996;-96
2021/09/03 05:14:40;;;;;;;3.20;1.92;;;10.90;97.30;;;;;;6195604;23;19997;-96
2021/09/03 05:17:16;;;;;;;1.88;1.75;;;11.00;97.20;;;;;;6221146;23;20000;-95
2021/09/03 05:19:47;;;;;;;2.47;1.80;;;11.10;96.90;;;;;;6233389;23;20016;-93
2021/09/03 05:22:22;;;;;;;3.50;2.10;;;11.20;96.60;;;;;;6232860;23;20009;-95
2021/09/03 05:25:05;;;;;;;2.92;1.98;;;11.30;96.40;;;;;;6215259;23;20007;-95
2021/09/03 05:27:33;;;;;;;1.85;1.73;;;11.40;96.40;;;;;;6199253;23;20428;-93
2021/09/03 05:30:02;;;;;;;7.00;1.83;;;11.50;96.30;;;;;;6228282;23;20083;-94
2021/09/03 05:32:30;;;;;;;2.25;1.63;;;11.50;96.10;;;;;;6197944;23;19997;-94
2021/09/03 05:34:56;;;;;;;2.10;1.90;;;11.70;95.60;;;;;;6225486;23;20035;-94
2021/09/03 05:37:22;;;;;;;1.90;1.77;;;11.70;95.20;;;;;;6227899;23;20001;-93
2021/09/03 05:40:00;;;;;;;3.45;2.00;;;11.80;95.10;;;;;;6197882;23;20044;-93
2021/09/03 05:42:35;;;;;;;2.53;1.95;;;11.90;95.00;;;;;;6238038;23;20001;-93
2021/09/03 05:45:04;;;;;;;3.97;1.70;;;12.00;94.80;;;;;;6238421;23;19996;-94
2021/09/03 05:47:42;;;;;;;1.38;1.23;;;12.10;94.90;;;;;;6239184;23;20020;-94
2021/09/03 05:50:09;;;;;;;1.60;1.50;;;12.20;94.50;;;;;;6204299;23;20079;-93
2021/09/03 05:52:37;;;;;;;1.90;1.50;;;12.30;94.40;;;;;;6232115;23;20088;-93
2021/09/03 05:55:07;;;;;;;1.65;1.55;;;12.40;93.60;;;;;;6228884;23;20001;-93
2021/09/03 05:57:53;;;;;;;1.95;1.52;;;12.60;93.80;;;;;;6210622;23;20012;-95
2021/09/03 06:00:31;;;;;;;2.35;1.70;;;12.60;93.10;;;;;;6238155;23;20056;-94
2021/09/03 06:03:13;;;;;;;1.58;1.30;;;12.70;93.10;;;;;;6236740;23;20004;-93
2021/09/03 06:05:41;;;;;;;1.83;1.27;;;12.80;92.80;;;;;;6236840;23;20000;-94
2021/09/03 06:08:46;;;;;;;1.95;1.52;;;12.90;92.10;;;;;;6236027;23;20004;-93
2021/09/03 06:14:38;;;;;;;2.92;1.50;;;13.00;91.70;;;;;;6220960;22;20055;-94
2021/09/03 06:17:48;;;;;;;1.17;1.10;;;13.10;90.80;;;;;;6085298;23;20003;-94
2021/09/03 06:20:35;;;;;;;2.53;1.75;;;13.30;90.70;;;;;;6018999;23;20023;-94
2021/09/03 06:23:33;;;;;;;2.47;1.92;;;13.40;90.00;;;;;;6050646;23;20447;-95
2021/09/03 06:26:16;;;;;;;2.33;1.65;;;13.40;87.10;;;;;;6062096;23;20006;-94
2021/09/03 06:28:42;;;;;;;1.30;1.20;;;13.50;88.20;;;;;;6129533;23;20042;-94
2021/09/03 06:31:08;;;;;;;1.75;1.42;;;13.60;87.40;;;;;;6135455;23;20346;-93
2021/09/03 06:33:34;;;;;;;2.17;1.40;;;13.70;86.90;;;;;;6133761;23;20009;-93
2021/09/03 06:36:00;;;;;;;2.45;1.77;;;13.80;87.10;;;;;;6129638;23;20017;-92
2021/09/03 06:38:27;;;;;;;1.30;1.20;;;13.90;84.90;;;;;;6127468;23;20014;-93
2021/09/03 06:40:53;;;;;;;1.33;1.23;;;13.90;84.60;;;;;;6125754;23;20013;-94
2021/09/03 06:43:19;;;;;;;1.45;1.30;;;14.00;83.00;;;;;;6127778;23;20030;-93
2021/09/03 06:45:44;;;;;;;1.20;1.08;;;14.10;83.90;;;;;;6125994;23;20025;-93
2021/09/03 06:48:10;;;;;;;1.42;1.30;;;14.20;83.10;;;;;;6126017;23;20500;-93
2021/09/03 06:50:36;;;;;;;1.23;1.00;;;14.30;82.60;;;;;;6140471;23;19997;-95
2021/09/03 06:53:02;;;;;;;0.90;0.90;;;14.50;82.70;;;;;;6161427;23;20001;-93
2021/09/03 06:55:39;;;;;;;1.77;1.10;;;14.60;81.40;;;;;;6187500;23;20001;-94
2021/09/03 06:58:04;;;;;;;1.17;1.05;;;14.70;80.80;;;;;;6162326;23;20021;-93
2021/09/03 07:00:31;;;;;;;1.50;1.30;;;14.70;78.40;;;;;;6161707;23;20392;-94
2021/09/03 07:02:57;;;;;;;1.45;1.20;;;14.80;78.00;;;;;;6162313;23;20028;-95
2021/09/03 07:05:23;;;;;;;0.85;0.80;;;14.80;77.80;;;;;;6162448;23;20056;-94
2021/09/03 07:07:52;;;;;;;1.27;1.00;;;15.00;78.30;;;;;;6162964;23;20062;-95
2021/09/03 07:10:20;;;;;;;1.73;0.90;;;15.10;76.60;;;;;;6161283;23;20011;-93
2021/09/03 07:12:48;;;;;;;1.98;1.10;;;15.10;75.80;;;;;;6163266;23;20495;-95
2021/09/03 07:15:14;;;;;;;0.93;0.90;;;15.20;74.90;;;;;;6163017;23;20040;-94
2021/09/03 07:17:39;;;;;;;0.77;0.70;;;15.20;74.40;;;;;;6161568;23;20433;-94
2021/09/03 07:20:06;;;;;;;4.47;1.20;;;15.20;73.20;;;;;;6187748;23;19998;-95
2021/09/03 07:22:36;;;;;;;1.65;0.80;;;15.30;72.70;;;;;;6159811;23;20493;-95
2021/09/03 07:25:04;;;;;;;1.20;0.82;;;15.30;71.30;;;;;;6137764;23;19997;-94
2021/09/03 07:27:45;;;;;;;1.10;1.00;;;15.40;71.00;;;;;;6160839;23;20333;-94
2021/09/03 07:30:11;;;;;;;1.77;1.17;;;15.50;69.50;;;;;;6189534;23;20004;-94
2021/09/03 07:32:38;;;;;;;1.75;1.13;;;15.50;70.10;;;;;;6188368;23;20294;-94
2021/09/03 07:35:04;;;;;;;2.47;1.00;;;15.50;68.50;;;;;;6142196;23;20013;-93
2021/09/03 07:37:30;;;;;;;1.00;0.82;;;15.60;68.90;;;;;;6166105;23;20005;-93
2021/09/03 07:39:58;;;;;;;2.05;0.80;;;15.60;68.30;;;;;;6172216;23;20001;-94
2021/09/03 07:42:24;;;;;;;1.55;1.27;;;15.60;68.00;;;;;;6170059;23;20067;-94
2021/09/03 07:44:50;;;;;;;1.55;1.15;;;15.70;68.30;;;;;;6164622;23;20413;-94
2021/09/03 07:47:16;;;;;;;3.22;1.85;;;15.80;68.10;;;;;;6166844;23;20005;-94
2021/09/03 07:49:44;;;;;;;2.15;1.30;;;15.80;67.10;;;;;;6168759;23;20040;-95
2021/09/03 07:52:23;;;;;;;1.95;1.33;;;15.90;67.70;;;;;;6190090;23;20023;-96
2021/09/03 07:54:58;;;;;;;1.65;1.13;;;16.00;66.00;;;;;;6166016;23;20075;-96
2021/09/03 07:57:28;;;;;;;1.98;0.98;;;16.00;66.00;;;;;;6195091;23;20440;-94
2021/09/03 08:00:02;;;;;;;3.90;2.78;;;16.10;66.70;;;;;;6166744;23;20001;-96
2021/09/03 08:02:33;;;;;;;1.77;1.40;;;16.20;67.00;;;;;;6170809;23;20004;-95
2021/09/03 08:05:09;;;;;;;1.27;1.17;;;16.20;64.80;;;;;;6170197;23;20057;-96
2021/09/03 08:07:35;;;;;;;0.98;0.90;;;16.20;65.20;;;;;;6164567;23;20463;-94
2021/09/03 08:10:01;;;;;;;0.98;0.88;;;16.30;64.70;;;;;;6167592;23;20004;-94
2021/09/03 08:12:29;;;;;;;1.60;1.50;;;16.30;64.50;;;;;;6167844;23;20055;-94
2021/09/03 08:15:00;;;;;;;3.53;1.15;;;16.40;63.60;;;;;;6167080;23;20396;-93
2021/09/03 08:17:32;;;;;;;1.00;0.93;;;16.40;63.20;;;;;;6164855;23;20001;-94
2021/09/03 08:20:04;;;;;;;1.17;1.08;;;16.40;62.70;;;;;;6142119;23;20006;-94
2021/09/03 08:22:32;;;;;;;1.35;0.90;;;16.40;62.90;;;;;;6166355;23;20428;-95
2021/09/03 08:24:58;;;;;;;1.08;1.00;;;16.50;63.80;;;;;;6140358;23;20032;-95
2021/09/03 08:27:25;;;;;;;2.20;1.05;;;16.60;64.30;;;;;;6163159;23;20011;-95
2021/09/03 08:29:52;;;;;;;0.88;0.80;;;16.70;63.20;;;;;;6137905;23;20467;-95
2021/09/03 08:32:18;;;;;;;4.63;1.38;;;16.80;63.20;;;;;;6161023;23;20008;-94
2021/09/03 08:35:15;;;;;;;2.90;0.93;;;16.70;62.70;;;;;;6091002;23;20053;-94
2021/09/03 08:37:47;;;;;;;1.05;0.95;;;16.80;61.80;;;;;;6164168;23;20429;-94
2021/09/03 08:40:16;;;;;;;1.42;1.15;;;16.80;62.20;;;;;;6166303;23;20091;-93
2021/09/03 08:42:45;;;;;;;1.02;0.70;;;16.80;60.00;;;;;;6166362;23;20012;-94
2021/09/03 08:45:29;;;;;;;1.20;1.08;;;16.70;60.50;;;;;;6163847;23;20372;-94
2021/09/03 08:47:58;;;;;;;1.98;1.15;;;16.70;60.50;;;;;;6166691;23;20063;-93
2021/09/03 08:50:28;;;;;;;1.20;0.98;;;16.70;61.30;;;;;;6163538;23;20008;-93
2021/09/03 08:52:55;;;;;;;1.02;1.00;;;16.80;60.30;;;;;;6163644;23;20028;-93
2021/09/03 08:55:21;;;;;;;1.10;1.00;;;16.80;60.60;;;;;;6167207;23;20008;-95
2021/09/03 08:58:07;;;;;;;0.82;0.82;;;16.90;60.60;;;;;;6165091;23;20302;-95
2021/09/03 09:00:38;;;;;;;1.65;1.40;;;17.00;60.10;;;;;;6141159;23;20084;-95
2021/09/03 09:03:34;;;;;;;;;;;;;;;;;;;;;
2021/09/03 09:06:05;;;;;;;3.38;1.45;;;17.30;60.60;;;;;;6180492;23;20063;-96
2021/09/03 09:08:35;;;;;;;1.80;0.95;;;17.40;58.90;;;;;;6143754;23;20013;-96
2021/09/03 09:18:03;;;;;;;2.83;1.67;;;17.40;59.00;;;;;;6169536;23;20422;-96
2021/09/03 09:20:35;;;;;;;3.00;1.55;;;17.40;58.30;;;;;;6166094;23;20008;-96
2021/09/03 09:26:42;;;;;;;1.15;1.00;;;17.60;57.30;;;;;;6168141;23;20012;-95
2021/09/03 09:29:18;;;;;;;0.88;0.70;;;17.60;57.10;;;;;;6169303;23;20036;-94
2021/09/03 15:36:57;;;;;;;2.33;1.50;;;18.80;55.30;;;;;;6253903;22;20016;-84
2021/09/03 15:42:45;;;;;;;3.65;1.75;;;18.70;56.00;;;;;;6250997;23;20054;-87
2021/09/03 15:45:12;;;;;;;2.60;2.10;;;18.60;56.20;;;;;;6246068;23;20004;-88
2021/09/03 15:47:38;;;;;;;3.35;2.22;;;18.60;56.40;;;;;;6246704;23;20085;-87
2021/09/03 15:50:07;;;;;;;1.77;1.67;;;18.50;56.60;;;;;;6246360;23;20384;-88
2021/09/03 15:52:35;;;;;;;2.55;1.95;;;18.50;56.80;;;;;;6246802;23;20012;-88
2021/09/03 15:55:01;;;;;;;2.42;1.88;;;18.40;57.10;;;;;;6247243;23;20054;-88
2021/09/03 15:57:27;;;;;;;2.58;1.95;;;18.40;57.50;;;;;;6246245;23;20000;-88
2021/09/03 15:59:53;;;;;;;2.38;1.80;;;18.30;57.70;;;;;;6245208;23;19996;-88
2021/09/03 16:02:19;;;;;;;3.25;1.90;;;18.20;57.80;;;;;;6247189;22;20015;-87
2021/09/03 16:04:44;;;;;;;3.88;2.83;;;18.20;58.10;;;;;;6245510;23;20000;-89
2021/09/03 16:07:10;;;;;;;4.13;2.95;;;18.10;58.40;;;;;;6246855;23;20003;-89
2021/09/03 16:09:38;;;;;;;3.97;2.97;;;18.00;58.50;;;;;;6244987;23;20051;-89
2021/09/03 16:12:06;;;;;;;5.18;3.65;;;18.00;58.90;;;;;;6220445;23;20074;-88
2021/09/03 16:14:33;;;;;;;9.00;3.20;;;18.00;59.00;;;;;;6245931;23;20003;-89
2021/09/03 16:17:05;;;;;;;4.47;3.17;;;17.90;59.10;;;;;;6247627;22;20071;-90
2021/09/03 16:19:31;;;;;;;4.60;2.92;;;17.90;59.30;;;;;;6246366;23;20427;-88
2021/09/03 16:21:57;;;;;;;4.63;3.20;;;17.90;59.60;;;;;;6245971;23;20026;-89
2021/09/03 16:24:23;;;;;;;3.33;2.72;;;17.80;59.80;;;;;;6245691;23;20031;-88
2021/09/03 16:26:49;;;;;;;5.32;2.55;;;17.80;59.90;;;;;;6245702;23;20388;-87
2021/09/03 16:29:14;;;;;;;3.08;2.30;;;17.80;60.10;;;;;;6245830;23;20012;-88
2021/09/03 16:31:40;;;;;;;3.28;2.42;;;17.70;60.40;;;;;;6247868;23;20126;-88
2021/09/03 16:34:06;;;;;;;2.83;2.10;;;17.70;60.60;;;;;;6247323;22;19996;-88
2021/09/03 16:36:32;;;;;;;2.35;1.80;;;17.60;60.80;;;;;;6246238;23;20020;-87
2021/09/03 16:38:58;;;;;;;1.92;1.77;;;17.60;61.00;;;;;;6248189;22;20010;-87
2021/09/03 16:41:24;;;;;;;2.28;1.90;;;17.60;61.30;;;;;;6245389;23;20087;-89
2021/09/03 16:43:50;;;;;;;2.65;2.03;;;17.50;61.40;;;;;;6245364;23;20000;-90
2021/09/03 16:46:19;;;;;;;1.80;1.50;;;17.50;61.60;;;;;;6245065;23;20015;-87
2021/09/03 16:48:45;;;;;;;2.45;1.83;;;17.40;61.90;;;;;;6243988;23;20443;-88
2021/09/03 16:51:11;;;;;;;3.30;2.03;;;17.40;62.10;;;;;;6246182;22;20008;-88
2021/09/03 16:53:42;;;;;;;2.05;1.70;;;17.30;62.20;;;;;;6245243;23;20011;-88
2021/09/03 16:56:26;;;;;;;3.08;1.83;;;17.30;62.50;;;;;;6249307;23;20000;-88
2021/09/03 16:58:53;;;;;;;2.90;1.90;;;17.30;62.70;;;;;;6245638;23;20007;-87
2021/09/03 17:01:19;;;;;;;3.28;2.03;;;17.20;63.00;;;;;;6244966;23;20035;-88
2021/09/03 17:03:44;;;;;;;2.42;2.22;;;17.10;63.10;;;;;;6244694;23;20004;-88
2021/09/03 17:06:12;;;;;;;3.80;3.20;;;17.10;64.00;;;;;;6244531;23;20012;-88
2021/09/03 17:08:39;;;;;;;3.45;3.03;;;17.10;63.80;;;;;;6244636;23;20000;-88
2021/09/03 17:11:06;;;;;;;3.00;2.42;;;17.00;63.80;;;;;;6245368;23;20031;-88
2021/09/03 17:13:31;;;;;;;3.65;3.13;;;17.00;64.00;;;;;;6246849;23;20004;-88
2021/09/03 17:15:57;;;;;;;3.70;2.95;;;16.90;64.40;;;;;;6244392;23;20008;-89
2021/09/03 17:18:51;;;;;;;4.50;2.50;;;16.90;64.70;;;;;;6245096;23;20004;-89
2021/09/03 17:21:19;;;;;;;3.40;2.30;;;16.80;64.90;;;;;;6247474;22;20035;-89
2021/09/03 17:23:46;;;;;;;6.05;4.22;;;16.70;65.20;;;;;;6243876;23;20013;-90
2021/09/03 17:26:15;;;;;;;6.57;5.38;;;16.70;65.50;;;;;;6245310;23;20487;-89
2021/09/03 17:28:44;;;;;;;5.82;5.00;;;16.60;65.80;;;;;;6243985;23;20004;-89
2021/09/03 17:31:10;;;;;;;6.70;4.63;;;16.50;66.80;;;;;;6245425;23;20401;-88
2021/09/03 17:33:40;;;;;;;4.50;2.80;;;16.50;66.60;;;;;;6244756;23;19997;-88
2021/09/03 17:36:06;;;;;;;4.90;3.10;;;16.40;66.80;;;;;;6245052;23;20060;-87
2021/09/03 17:38:34;;;;;;;3.78;2.60;;;16.30;67.30;;;;;;6247535;22;20012;-86
2021/09/03 17:41:11;;;;;;;4.53;2.42;;;16.20;67.50;;;;;;6246629;22;20107;-89
2021/09/03 17:43:41;;;;;;;3.67;2.55;;;16.10;68.30;;;;;;6246074;23;20004;-87
2021/09/03 17:46:08;;;;;;;4.68;2.30;;;16.10;68.30;;;;;;6245200;23;20436;-87
2021/09/03 17:48:34;;;;;;;3.65;2.38;;;16.00;68.80;;;;;;6243353;23;20008;-86
2021/09/03 17:51:03;;;;;;;3.67;2.60;;;16.00;69.00;;;;;;6246520;22;20004;-86
2021/09/03 17:53:37;;;;;;;3.90;2.40;;;15.90;69.40;;;;;;6245348;23;20000;-87
2021/09/03 17:56:03;;;;;;;5.22;2.75;;;15.80;69.70;;;;;;6245304;23;20004;-88
2021/09/03 17:58:30;;;;;;;3.55;2.70;;;15.80;70.30;;;;;;6237793;23;20711;-90
2021/09/03 18:00:56;;;;;;;4.75;2.70;;;15.70;70.20;;;;;;6239287;23;20038;-91
2021/09/03 18:03:22;;;;;;;2.42;2.15;;;15.70;70.50;;;;;;6240684;23;20000;-90
2021/09/03 18:05:48;;;;;;;4.20;2.65;;;15.60;70.90;;;;;;6240608;23;20496;-89
2021/09/03 18:08:13;;;;;;;4.28;2.95;;;15.60;71.10;;;;;;6239610;23;20012;-89
2021/09/03 18:10:39;;;;;;;4.80;2.97;;;15.50;71.40;;;;;;6241683;22;20455;-90
2021/09/03 18:13:05;;;;;;;4.60;2.88;;;15.50;71.70;;;;;;6244662;22;20003;-89
2021/09/03 18:15:31;;;;;;;5.30;3.65;;;15.40;72.00;;;;;;6243758;23;20000;-89
2021/09/03 18:17:56;;;;;;;4.95;3.22;;;15.40;72.60;;;;;;6243707;23;20011;-90
2021/09/03 18:20:22;;;;;;;9.75;4.88;;;15.30;72.70;;;;;;6243934;23;19996;-88
2021/09/03 18:22:48;;;;;;;7.63;4.63;;;15.20;73.00;;;;;;6246001;23;20004;-88
2021/09/03 18:25:14;;;;;;;10.07;5.10;;;15.20;73.40;;;;;;6246030;23;20095;-88
2021/09/03 18:27:40;;;;;;;8.40;5.72;;;15.10;73.70;;;;;;6245404;23;20004;-88
2021/09/03 18:30:07;;;;;;;12.23;6.88;;;15.10;74.00;;;;;;6245271;23;20026;-88
2021/09/03 18:32:33;;;;;;;9.82;6.90;;;15.00;74.20;;;;;;6245338;23;20055;-88
2021/09/03 18:34:59;;;;;;;10.13;6.60;;;15.00;74.40;;;;;;6247024;22;20005;-89
2021/09/03 18:37:24;;;;;;;9.13;5.43;;;14.90;74.60;;;;;;6245080;23;20023;-89
2021/09/03 18:39:50;;;;;;;8.60;5.03;;;14.90;75.00;;;;;;6245338;22;20000;-88
2021/09/03 18:42:16;;;;;;;6.22;4.20;;;14.80;75.70;;;;;;6245414;23;20031;-88
2021/09/03 18:44:41;;;;;;;7.30;4.30;;;14.80;76.10;;;;;;6245250;23;20054;-88
2021/09/03 18:47:07;;;;;;;9.13;4.97;;;14.70;76.40;;;;;;6246681;22;19992;-88
2021/09/03 18:49:35;;;;;;;7.20;3.75;;;14.70;76.80;;;;;;6245359;23;20012;-88
2021/09/03 18:52:03;;;;;;;7.45;4.07;;;14.70;77.10;;;;;;6245261;23;20088;-89
2021/09/03 18:54:29;;;;;;;4.82;3.03;;;14.70;77.10;;;;;;6245908;23;20004;-88
2021/09/03 18:56:55;;;;;;;6.35;4.38;;;14.60;77.60;;;;;;6245271;23;20000;-88
2021/09/03 18:59:21;;;;;;;7.32;4.22;;;14.60;78.10;;;;;;6245425;23;20446;-88
2021/09/03 19:01:47;;;;;;;5.65;3.15;;;14.50;78.70;;;;;;6245171;23;19996;-88
2021/09/03 19:04:14;;;;;;;5.40;2.83;;;14.50;79.30;;;;;;6246873;22;19992;-89
2021/09/03 19:06:40;;;;;;;4.68;3.05;;;14.50;79.40;;;;;;6246809;22;20000;-88
2021/09/03 19:09:06;;;;;;;4.90;2.80;;;14.50;79.90;;;;;;6245551;23;20062;-88
2021/09/03 19:11:32;;;;;;;4.72;3.13;;;14.50;79.80;;;;;;6244994;23;20012;-89
2021/09/03 19:13:57;;;;;;;4.40;2.90;;;14.50;80.30;;;;;;6245233;23;20011;-88
2021/09/03 19:16:23;;;;;;;4.38;2.90;;;14.40;80.60;;;;;;6245190;23;20508;-88
2021/09/03 19:18:49;;;;;;;5.07;2.95;;;14.40;80.40;;;;;;6246682;23;20053;-88
2021/09/03 19:21:14;;;;;;;6.03;3.25;;;14.40;80.50;;;;;;6245137;23;20344;-88